createdAt,value
2022-10-05T00:00:55.661Z,100.00
2022-10-05T00:03:26.181Z,100.00
2022-10-05T00:05:53.877Z,100.00
2022-10-05T00:08:30.908Z,100.00
2022-10-05T00:10:58.079Z,100.00
2022-10-05T00:13:29.262Z,100.00
2022-10-05T00:16:11.657Z,100.00
2022-10-05T00:18:39.683Z,100.00
2022-10-05T00:21:25.956Z,100.00
2022-10-05T00:23:56.966Z,100.00
2022-10-05T00:26:27.450Z,100.00
2022-10-05T00:28:55.241Z,100.00
2022-10-05T00:31:26.743Z,100.00
2022-10-05T00:33:55.017Z,100.00
2022-10-05T00:36:22.546Z,100.00
2022-10-05T00:38:49.554Z,100.00
2022-10-05T00:41:45.112Z,100.00
2022-10-05T00:44:24.396Z,100.00
2022-10-05T00:47:11.012Z,100.00
2022-10-05T00:49:56.979Z,100.00
2022-10-05T00:52:52.214Z,100.00
2022-10-05T00:55:43.611Z,100.00
2022-10-05T00:58:13.526Z,100.00
2022-10-05T01:01:21.910Z,100.00
2022-10-05T01:04:17.470Z,100.00
2022-10-05T01:06:53.119Z,100.00
2022-10-05T01:09:48.462Z,100.00
2022-10-05T01:12:25.454Z,100.00
2022-10-05T01:15:18.672Z,100.00
2022-10-05T01:18:24.507Z,100.00
2022-10-05T01:21:17.219Z,100.00
2022-10-05T01:24:29.325Z,100.00
2022-10-05T01:27:13.903Z,100.00
2022-10-05T01:30:14.312Z,100.00
2022-10-05T01:32:56.538Z,100.00
2022-10-05T01:35:38.593Z,100.00
2022-10-05T01:38:25.425Z,100.00
2022-10-05T01:41:25.964Z,100.00
2022-10-05T01:44:05.814Z,100.00
2022-10-05T01:46:46.299Z,100.00
2022-10-05T01:49:31.149Z,100.00
2022-10-05T01:52:28.549Z,100.00
2022-10-05T01:55:26.936Z,100.00
2022-10-05T01:58:25.909Z,100.00
2022-10-05T02:01:05.169Z,100.00
2022-10-05T02:03:43.578Z,100.00
2022-10-05T02:06:23.878Z,100.00
2022-10-05T02:09:01.196Z,100.00
2022-10-05T02:11:28.483Z,100.00
2022-10-05T02:14:07.424Z,100.00
2022-10-05T02:16:41.853Z,100.00
2022-10-05T02:19:25.962Z,100.00
2022-10-05T02:22:09.246Z,100.00
2022-10-05T02:24:45.431Z,100.00
2022-10-05T02:27:21.241Z,100.00
2022-10-05T02:29:52.445Z,100.00
2022-10-05T02:32:26.421Z,100.00
2022-10-05T02:34:59.746Z,100.00
2022-10-05T02:37:36.087Z,100.00
2022-10-05T02:40:21.268Z,100.00
2022-10-05T02:43:08.406Z,100.00
2022-10-05T02:45:49.585Z,100.00
2022-10-05T02:48:22.677Z,100.00
2022-10-05T02:50:57.090Z,100.00
2022-10-05T02:53:37.934Z,100.00
2022-10-05T02:56:13.873Z,100.00
2022-10-05T02:59:19.493Z,100.00
2022-10-05T03:02:05.026Z,100.00
2022-10-05T03:04:51.174Z,100.00
2022-10-05T03:07:27.884Z,100.00
2022-10-05T03:10:08.474Z,100.00
2022-10-05T03:13:06.361Z,100.00
2022-10-05T03:16:08.779Z,100.00
2022-10-05T03:19:18.571Z,100.00
2022-10-05T03:22:14.239Z,100.00
2022-10-05T03:25:12.753Z,100.00
2022-10-05T03:28:04.111Z,100.00
2022-10-05T03:31:08.160Z,100.00
2022-10-05T03:34:04.171Z,100.00
2022-10-05T03:37:34.910Z,100.00
2022-10-05T03:40:10.401Z,100.00
2022-10-05T03:43:34.237Z,100.00
2022-10-05T03:46:23.279Z,100.00
2022-10-05T03:49:46.701Z,100.00
2022-10-05T03:53:11.662Z,100.00
2022-10-05T03:55:49.192Z,100.00
2022-10-05T03:59:12.599Z,100.00
2022-10-05T04:02:36.138Z,100.00
2022-10-05T04:06:00.867Z,100.00
2022-10-05T04:09:24.338Z,100.00
2022-10-05T04:12:21.429Z,100.00
2022-10-05T04:15:05.108Z,100.00
2022-10-05T04:17:41.673Z,100.00
2022-10-05T04:21:05.267Z,100.00
2022-10-05T04:23:44.821Z,100.00
2022-10-05T04:27:08.639Z,100.00
2022-10-05T04:29:41.594Z,100.00
2022-10-05T04:32:33.556Z,100.00
2022-10-05T04:35:57.262Z,100.00
2022-10-05T04:39:21.759Z,100.00
2022-10-05T04:42:22.068Z,100.00
2022-10-05T04:45:26.135Z,100.00
2022-10-05T04:47:59.452Z,100.00
2022-10-05T04:51:15.251Z,100.00
2022-10-05T04:53:56.189Z,100.00
2022-10-05T04:56:54.134Z,100.00
2022-10-05T04:59:49.279Z,100.00
2022-10-05T05:02:36.741Z,100.00
2022-10-05T05:06:05.358Z,100.00
2022-10-05T05:08:45.695Z,100.00
2022-10-05T05:11:33.943Z,100.00
2022-10-05T05:14:26.653Z,100.00
2022-10-05T05:17:34.079Z,100.00
2022-10-05T05:20:51.709Z,100.00
2022-10-05T05:24:16.021Z,100.00
2022-10-05T05:27:36.866Z,100.00
2022-10-05T05:31:01.373Z,100.00
2022-10-05T05:33:56.928Z,100.00
2022-10-05T05:36:39.157Z,100.00
2022-10-05T05:39:30.050Z,100.00
2022-10-05T05:42:55.941Z,100.00
2022-10-05T05:46:33.983Z,100.00
2022-10-05T05:49:24.155Z,100.00
2022-10-05T05:52:47.904Z,100.00
2022-10-05T05:55:30.489Z,100.00
2022-10-05T05:58:11.714Z,100.00
2022-10-05T06:01:39.500Z,100.00
2022-10-05T06:04:15.972Z,100.00
2022-10-05T06:07:40.359Z,100.00
2022-10-05T06:11:03.996Z,100.00
2022-10-05T06:14:27.643Z,100.00
2022-10-05T06:17:03.925Z,100.00
2022-10-05T06:19:34.952Z,100.00
2022-10-05T06:23:00.526Z,100.00
2022-10-05T06:25:57.631Z,100.00
2022-10-05T06:28:27.192Z,100.00
2022-10-05T06:31:39.281Z,100.00
2022-10-05T06:34:34.847Z,100.00
2022-10-05T06:37:12.520Z,100.00
2022-10-05T06:39:51.897Z,100.00
2022-10-05T06:42:27.940Z,100.00
2022-10-05T06:45:43.201Z,100.00
2022-10-05T06:49:03.615Z,100.00
2022-10-05T06:52:45.979Z,100.00
2022-10-05T06:56:09.776Z,100.00
2022-10-05T06:58:58.983Z,100.00
2022-10-05T07:02:22.584Z,100.00
2022-10-05T07:05:28.790Z,100.00
2022-10-05T07:08:16.310Z,100.00
2022-10-05T07:11:02.513Z,100.00
2022-10-05T07:14:09.143Z,100.00
2022-10-05T07:17:14.612Z,100.00
2022-10-05T07:20:20.351Z,100.00
2022-10-05T07:23:04.047Z,100.00
2022-10-05T07:25:35.529Z,100.00
2022-10-05T07:28:40.934Z,100.00
2022-10-05T07:31:45.870Z,100.00
2022-10-05T07:34:52.350Z,100.00
2022-10-05T07:37:55.405Z,100.00
2022-10-05T07:40:42.187Z,100.00
2022-10-05T07:43:14.439Z,100.00
2022-10-05T07:45:42.687Z,100.00
2022-10-05T07:48:22.579Z,100.00
2022-10-05T07:51:00.236Z,100.00
2022-10-05T07:53:37.688Z,100.00
2022-10-05T07:56:43.712Z,100.00
2022-10-05T07:59:50.371Z,100.00
2022-10-05T08:02:44.401Z,100.00
2022-10-05T08:05:23.036Z,100.00
2022-10-05T08:07:55.648Z,100.00
2022-10-05T08:11:00.607Z,100.00
2022-10-05T08:14:06.283Z,100.00
2022-10-05T08:16:38.586Z,100.00
2022-10-05T08:19:43.973Z,100.00
2022-10-05T08:22:49.220Z,100.00
2022-10-05T08:25:54.276Z,100.00
2022-10-05T08:28:56.823Z,100.00
2022-10-05T08:31:27.186Z,100.00
2022-10-05T08:34:32.633Z,100.00
2022-10-05T08:37:28.523Z,100.00
2022-10-05T08:40:33.742Z,100.00
2022-10-05T08:43:38.944Z,100.00
2022-10-05T08:46:34.283Z,100.00
2022-10-05T08:49:20.033Z,100.00
2022-10-05T08:52:25.886Z,100.00
2022-10-05T08:55:27.332Z,100.00
2022-10-05T08:58:22.787Z,100.00
2022-10-05T09:01:12.513Z,100.00
2022-10-05T09:03:48.540Z,100.00
2022-10-05T09:06:44.202Z,100.00
2022-10-05T09:09:42.142Z,100.00
2022-10-05T09:12:47.677Z,100.00
2022-10-05T09:15:30.114Z,100.00
2022-10-05T09:18:29.963Z,100.00
2022-10-05T09:21:08.585Z,100.00
2022-10-05T09:23:43.500Z,100.00
2022-10-05T09:26:41.195Z,100.00
2022-10-05T09:29:34.174Z,100.00
2022-10-05T09:32:35.836Z,100.00
2022-10-05T09:35:27.352Z,100.00
2022-10-05T09:38:00.759Z,100.00
2022-10-05T09:41:06.899Z,100.00
2022-10-05T09:44:04.898Z,100.00
2022-10-05T09:46:51.342Z,100.00
2022-10-05T09:49:39.929Z,100.00
2022-10-05T09:52:19.044Z,100.00
2022-10-05T09:55:14.085Z,100.00
2022-10-05T09:58:03.188Z,100.00
2022-10-05T10:01:03.853Z,100.00
2022-10-05T10:04:32.464Z,100.00
2022-10-05T10:07:54.079Z,98.27
2022-10-05T10:11:09.514Z,97.17
2022-10-05T10:14:11.505Z,95.27
2022-10-05T10:17:17.009Z,93.29
2022-10-05T10:20:24.624Z,91.73
2022-10-05T10:23:19.720Z,92.62
2022-10-05T10:26:44.347Z,90.62
2022-10-05T10:29:43.084Z,90.08
2022-10-05T10:32:36.312Z,88.05
2022-10-05T10:35:31.683Z,87.27
2022-10-05T10:38:30.932Z,85.43
2022-10-05T10:41:42.037Z,84.34
2022-10-05T10:44:48.206Z,82.80
2022-10-05T10:48:12.064Z,81.24
2022-10-05T10:51:35.913Z,79.83
2022-10-05T10:54:18.625Z,79.25
2022-10-05T10:57:05.899Z,78.80
2022-10-05T11:00:21.547Z,77.92
2022-10-05T11:03:45.239Z,75.66
2022-10-05T11:07:09.177Z,72.45
2022-10-05T11:10:38.876Z,73.93
2022-10-05T11:13:31.004Z,70.45
2022-10-05T11:16:54.396Z,71.81
2022-10-05T11:20:17.883Z,69.99
2022-10-05T11:22:59.081Z,70.16
2022-10-05T11:26:11.643Z,69.27
2022-10-05T11:29:35.972Z,68.18
2022-10-05T11:32:43.556Z,65.30
2022-10-05T11:35:28.677Z,65.09
2022-10-05T11:38:19.840Z,64.02
2022-10-05T11:41:41.245Z,61.55
2022-10-05T11:44:24.344Z,60.49
2022-10-05T11:47:12.898Z,58.54
2022-10-05T11:49:59.196Z,58.79
2022-10-05T11:52:45.977Z,54.89
2022-10-05T11:55:19.527Z,54.31
2022-10-05T11:57:57.966Z,52.45
2022-10-05T12:00:42.524Z,52.24
2022-10-05T12:03:39.793Z,47.73
2022-10-05T12:06:25.656Z,48.15
2022-10-05T12:09:04.622Z,48.18
2022-10-05T12:11:49.402Z,47.16
2022-10-05T12:14:49.383Z,43.32
2022-10-05T12:17:40.764Z,44.19
2022-10-05T12:20:26.021Z,42.55
2022-10-05T12:23:06.326Z,42.15
2022-10-05T12:25:42.359Z,39.59
2022-10-05T12:28:13.742Z,38.94
2022-10-05T12:31:11.805Z,37.03
2022-10-05T12:33:59.837Z,37.46
2022-10-05T12:36:59.681Z,36.86
2022-10-05T12:39:50.967Z,36.98
2022-10-05T12:42:36.972Z,35.97
2022-10-05T12:45:15.415Z,35.97
2022-10-05T12:48:19.302Z,37.57
2022-10-05T12:50:53.582Z,36.35
2022-10-05T12:54:01.631Z,35.69
2022-10-05T12:56:59.112Z,36.73
2022-10-05T13:00:03.439Z,33.69
2022-10-05T13:03:28.583Z,33.07
2022-10-05T13:06:52.204Z,36.21
2022-10-05T13:10:15.989Z,35.98
2022-10-05T13:13:41.865Z,34.90
2022-10-05T13:17:05.625Z,33.85
2022-10-05T13:20:28.944Z,34.42
2022-10-05T13:23:57.116Z,32.65
2022-10-05T13:27:22.192Z,31.70
2022-10-05T13:30:45.974Z,25.69
2022-10-05T13:34:09.437Z,24.59
2022-10-05T13:37:32.620Z,25.00
2022-10-05T13:40:57.993Z,25.48
2022-10-05T13:44:21.256Z,23.97
2022-10-05T13:47:44.902Z,22.96
2022-10-05T13:51:08.080Z,23.56
2022-10-05T13:54:31.570Z,23.21
2022-10-05T13:57:55.488Z,24.20
2022-10-05T14:00:26.959Z,23.52
2022-10-05T14:02:57.603Z,22.17
2022-10-05T14:05:29.269Z,21.05
2022-10-05T14:08:02.484Z,21.51
2022-10-05T14:10:38.272Z,22.61
2022-10-05T14:13:19.975Z,23.40
2022-10-05T14:16:25.336Z,23.49
2022-10-05T14:19:04.262Z,23.71
2022-10-05T14:22:11.125Z,24.03
2022-10-05T14:24:56.638Z,23.65
2022-10-05T14:27:30.818Z,23.76
2022-10-05T14:30:21.983Z,22.64
2022-10-05T14:33:03.807Z,22.63
2022-10-05T14:35:52.657Z,20.36
2022-10-05T14:38:29.726Z,21.13
2022-10-05T14:41:18.211Z,19.92
2022-10-05T14:43:55.959Z,21.78
2022-10-05T14:46:29.107Z,20.61
2022-10-05T14:49:25.841Z,21.21
2022-10-05T14:52:51.787Z,20.62
2022-10-05T14:55:46.922Z,20.82
2022-10-05T14:58:48.277Z,21.64
2022-10-05T15:01:26.197Z,22.21
2022-10-05T15:04:49.900Z,22.42
2022-10-05T15:07:24.189Z,23.18
2022-10-05T15:10:03.841Z,23.03
2022-10-05T15:12:49.887Z,22.90
2022-10-05T15:16:14.113Z,21.83
2022-10-05T15:18:57.495Z,20.65
2022-10-05T15:22:21.180Z,22.18
2022-10-05T15:25:03.772Z,21.90
2022-10-05T15:27:44.156Z,23.01
2022-10-05T15:31:07.722Z,23.51
2022-10-05T15:33:40.198Z,22.78
2022-10-05T15:37:03.766Z,22.81
2022-10-05T15:40:28.534Z,22.24
2022-10-05T15:43:52.188Z,22.36
2022-10-05T15:47:15.534Z,22.64
2022-10-05T15:50:39.213Z,24.28
2022-10-05T15:54:21.679Z,25.13
2022-10-05T15:57:45.524Z,25.17
2022-10-05T16:01:09.408Z,24.39
2022-10-05T16:03:51.762Z,24.04
2022-10-05T16:07:34.478Z,23.67
2022-10-05T16:10:18.483Z,23.68
2022-10-05T16:13:46.867Z,24.89
2022-10-05T16:16:40.622Z,25.77
2022-10-05T16:20:04.460Z,27.82
2022-10-05T16:22:59.676Z,29.41
2022-10-05T16:26:00.356Z,30.77
2022-10-05T16:28:50.352Z,29.71
2022-10-05T16:31:47.058Z,30.26
2022-10-05T16:35:10.739Z,31.98
2022-10-05T16:38:34.480Z,33.75
2022-10-05T16:41:19.568Z,34.78
2022-10-05T16:44:00.471Z,35.24
2022-10-05T16:46:47.505Z,35.84
2022-10-05T16:49:33.339Z,36.67
2022-10-05T16:52:04.787Z,36.53
2022-10-05T16:54:39.058Z,38.89
2022-10-05T16:57:23.337Z,38.49
2022-10-05T17:00:15.923Z,39.44
2022-10-05T17:03:14.053Z,40.24
2022-10-05T17:06:04.538Z,42.97
2022-10-05T17:08:38.873Z,43.78
2022-10-05T17:11:34.887Z,44.88
2022-10-05T17:14:34.130Z,46.15
2022-10-05T17:17:31.567Z,46.93
2022-10-05T17:20:55.572Z,48.03
2022-10-05T17:23:51.400Z,49.53
2022-10-05T17:26:56.477Z,51.99
2022-10-05T17:29:29.690Z,51.03
2022-10-05T17:32:37.243Z,51.58
2022-10-05T17:35:18.665Z,51.87
2022-10-05T17:38:17.097Z,53.34
2022-10-05T17:41:23.532Z,51.33
2022-10-05T17:44:21.567Z,51.92
2022-10-05T17:47:00.475Z,50.90
2022-10-05T17:50:15.287Z,50.65
2022-10-05T17:53:02.922Z,50.76
2022-10-05T17:55:33.911Z,51.75
2022-10-05T17:58:24.235Z,52.77
2022-10-05T18:01:06.893Z,53.14
2022-10-05T18:03:51.520Z,52.98
2022-10-05T18:06:37.452Z,54.09
2022-10-05T18:09:14.052Z,53.93
2022-10-05T18:11:45.146Z,54.80
2022-10-05T18:14:25.115Z,54.53
2022-10-05T18:17:13.539Z,55.50
2022-10-05T18:19:41.424Z,58.74
2022-10-05T18:22:17.770Z,61.75
2022-10-05T18:25:12.026Z,61.05
2022-10-05T18:28:02.410Z,65.03
2022-10-05T18:30:40.659Z,65.54
2022-10-05T18:33:29.863Z,69.10
2022-10-05T18:36:42.786Z,71.41
2022-10-05T18:39:50.543Z,73.27
2022-10-05T18:43:17.999Z,78.26
2022-10-05T18:46:42.112Z,81.68
2022-10-05T18:49:51.732Z,87.42
2022-10-05T18:53:15.651Z,90.34
2022-10-05T18:55:59.138Z,91.69
2022-10-05T18:58:53.221Z,91.36
2022-10-05T19:01:35.426Z,93.52
2022-10-05T19:04:59.678Z,95.94
2022-10-05T19:07:37.026Z,100.00
2022-10-05T19:10:18.418Z,100.00
2022-10-05T19:13:14.295Z,100.00
2022-10-05T19:16:38.258Z,100.00
2022-10-05T19:20:01.635Z,100.00
2022-10-05T19:23:32.781Z,100.00
2022-10-05T19:26:15.940Z,100.00
2022-10-05T19:29:39.809Z,100.00
2022-10-05T19:33:04.898Z,100.00
2022-10-05T19:36:28.347Z,100.00
2022-10-05T19:39:31.855Z,100.00
2022-10-05T19:42:33.588Z,100.00
2022-10-05T19:45:26.430Z,100.00
2022-10-05T19:48:13.811Z,100.00
2022-10-05T19:51:01.000Z,100.00
2022-10-05T19:53:37.994Z,100.00
2022-10-05T19:56:25.941Z,100.00
2022-10-05T19:58:59.266Z,100.00
2022-10-05T20:01:36.396Z,100.00
2022-10-05T20:04:04.996Z,100.00
2022-10-05T20:06:33.317Z,100.00
2022-10-05T20:09:20.168Z,100.00
2022-10-05T20:11:52.800Z,100.00
2022-10-05T20:14:33.658Z,100.00
2022-10-05T20:17:47.741Z,100.00
2022-10-05T20:20:36.867Z,100.00
2022-10-05T20:23:25.145Z,100.00
2022-10-05T20:26:11.632Z,100.00
2022-10-05T20:28:38.975Z,100.00
2022-10-05T20:31:09.295Z,100.00
2022-10-05T20:33:36.396Z,100.00
2022-10-05T20:36:04.277Z,100.00
2022-10-05T20:38:31.768Z,100.00
2022-10-05T20:40:59.004Z,100.00
2022-10-05T20:43:26.002Z,100.00
2022-10-05T20:45:53.727Z,100.00
2022-10-05T20:48:20.961Z,100.00
2022-10-05T20:50:48.061Z,100.00
2022-10-05T20:53:15.073Z,100.00
2022-10-05T20:55:43.066Z,100.00
2022-10-05T20:58:11.063Z,100.00
2022-10-05T21:00:56.926Z,100.00
2022-10-05T21:03:24.047Z,100.00
2022-10-05T21:05:51.063Z,100.00
2022-10-05T21:08:18.481Z,100.00
2022-10-05T21:10:45.690Z,100.00
2022-10-05T21:13:13.423Z,100.00
2022-10-05T21:15:40.850Z,100.00
2022-10-05T21:18:07.836Z,100.00
2022-10-05T21:20:35.117Z,100.00
2022-10-05T21:23:02.496Z,100.00
2022-10-05T21:25:29.786Z,100.00
2022-10-05T21:27:56.853Z,100.00
2022-10-05T21:30:23.941Z,100.00
2022-10-05T21:32:50.980Z,100.00
2022-10-05T21:35:18.022Z,100.00
2022-10-05T21:37:45.206Z,100.00
2022-10-05T21:40:12.538Z,100.00
2022-10-05T21:42:39.704Z,100.00
2022-10-05T21:45:07.685Z,100.00
2022-10-05T21:47:34.874Z,100.00
2022-10-05T21:50:05.135Z,100.00
2022-10-05T21:52:33.854Z,100.00
2022-10-05T21:55:02.562Z,100.00
2022-10-05T21:57:29.564Z,100.00
2022-10-05T21:59:56.843Z,100.00
2022-10-05T22:02:23.989Z,100.00
2022-10-05T22:04:51.038Z,100.00
2022-10-05T22:07:19.724Z,100.00
2022-10-05T22:09:49.253Z,100.00
2022-10-05T22:12:17.889Z,100.00
2022-10-05T22:14:45.121Z,100.00
2022-10-05T22:17:27.229Z,100.00
2022-10-05T22:19:55.550Z,100.00
2022-10-05T22:22:22.862Z,100.00
2022-10-05T22:24:50.754Z,100.00
2022-10-05T22:27:18.477Z,100.00
2022-10-05T22:29:45.895Z,100.00
2022-10-05T22:32:12.918Z,100.00
2022-10-05T22:34:39.926Z,100.00
2022-10-05T22:37:07.099Z,100.00
2022-10-05T22:39:34.101Z,100.00
2022-10-05T22:42:01.113Z,100.00
2022-10-05T22:44:28.215Z,100.00
2022-10-05T22:46:55.372Z,100.00
2022-10-05T22:49:22.399Z,100.00
2022-10-05T22:51:49.493Z,100.00
2022-10-05T22:54:17.442Z,100.00
2022-10-05T22:56:44.586Z,100.00
2022-10-05T22:59:11.667Z,100.00
2022-10-05T23:01:38.674Z,100.00
2022-10-05T23:04:07.827Z,100.00
2022-10-05T23:06:34.934Z,100.00
2022-10-05T23:09:02.065Z,100.00
2022-10-05T23:11:30.109Z,100.00
2022-10-05T23:13:57.967Z,100.00
2022-10-05T23:16:28.259Z,100.00
2022-10-05T23:18:57.256Z,100.00
2022-10-05T23:21:28.218Z,100.00
2022-10-05T23:23:55.633Z,100.00
2022-10-05T23:26:25.743Z,100.00
2022-10-05T23:28:53.594Z,100.00
2022-10-05T23:31:28.927Z,100.00
2022-10-05T23:33:56.253Z,100.00
2022-10-05T23:36:32.193Z,100.00
2022-10-05T23:39:00.375Z,100.00
2022-10-05T23:41:28.780Z,100.00
2022-10-05T23:43:55.916Z,100.00
2022-10-05T23:46:23.410Z,100.00
2022-10-05T23:48:50.725Z,100.00
2022-10-05T23:51:17.900Z,100.00
2022-10-05T23:53:45.127Z,100.00
2022-10-05T23:56:12.925Z,100.00
2022-10-05T23:58:40.655Z,100.00
